createdAt,value
2023-03-15T00:02:31.507Z,99.90
2023-03-15T00:05:03.789Z,99.90
2023-03-15T00:07:35.562Z,99.90
2023-03-15T00:10:07.667Z,99.90
2023-03-15T00:12:42.603Z,99.90
2023-03-15T00:15:15.525Z,99.90
2023-03-15T00:17:47.339Z,99.90
2023-03-15T00:20:19.883Z,99.90
2023-03-15T00:22:51.613Z,99.90
2023-03-15T00:25:23.493Z,99.90
2023-03-15T00:27:55.408Z,99.90
2023-03-15T00:30:27.358Z,99.90
2023-03-15T00:32:59.252Z,99.90
2023-03-15T00:35:31.517Z,99.90
2023-03-15T00:38:04.704Z,99.90
2023-03-15T00:40:38.049Z,99.90
2023-03-15T00:43:09.938Z,99.90
2023-03-15T00:45:41.726Z,99.90
2023-03-15T00:48:13.432Z,99.90
2023-03-15T00:50:47.650Z,99.90
2023-03-15T00:53:19.406Z,99.90
2023-03-15T00:55:51.135Z,99.90
2023-03-15T00:58:23.957Z,99.90
2023-03-15T01:00:57.100Z,99.90
2023-03-15T01:03:28.873Z,99.90
2023-03-15T01:06:06.789Z,99.90
2023-03-15T01:08:39.002Z,99.90
2023-03-15T01:11:14.131Z,99.90
2023-03-15T01:13:46.763Z,99.90
2023-03-15T01:16:18.570Z,99.90
2023-03-15T01:18:53.574Z,99.90
2023-03-15T01:21:25.350Z,99.90
2023-03-15T01:23:57.069Z,99.90
2023-03-15T01:26:29.001Z,99.90
2023-03-15T01:29:00.796Z,99.90
2023-03-15T01:31:32.947Z,99.90
2023-03-15T01:34:05.214Z,99.90
2023-03-15T01:36:37.649Z,99.90
2023-03-15T01:39:09.612Z,99.90
2023-03-15T01:41:47.949Z,99.90
2023-03-15T01:44:20.445Z,99.90
2023-03-15T01:46:53.517Z,99.90
2023-03-15T01:49:31.950Z,99.90
2023-03-15T01:52:12.971Z,99.90
2023-03-15T01:55:05.413Z,99.90
2023-03-15T01:57:44.164Z,99.90
2023-03-15T02:00:19.822Z,99.90
2023-03-15T02:03:14.485Z,99.90
2023-03-15T02:05:54.648Z,99.90
2023-03-15T02:08:57.928Z,99.90
2023-03-15T02:11:31.554Z,99.90
2023-03-15T02:14:06.277Z,99.90
2023-03-15T02:16:40.566Z,99.90
2023-03-15T02:19:56.957Z,99.90
2023-03-15T02:22:52.743Z,99.90
2023-03-15T02:25:36.742Z,99.90
2023-03-15T02:28:11.863Z,99.90
2023-03-15T02:30:44.287Z,99.90
2023-03-15T02:33:33.694Z,99.90
2023-03-15T02:36:21.114Z,99.90
2023-03-15T02:38:53.997Z,99.90
2023-03-15T02:41:36.540Z,99.90
2023-03-15T02:44:16.182Z,99.90
2023-03-15T02:46:51.363Z,99.90
2023-03-15T02:49:30.451Z,99.90
2023-03-15T02:52:02.195Z,99.90
2023-03-15T02:54:36.836Z,99.90
2023-03-15T02:57:17.332Z,99.90
2023-03-15T02:59:51.073Z,99.90
2023-03-15T03:02:24.063Z,99.90
2023-03-15T03:04:55.765Z,99.90
2023-03-15T03:07:27.528Z,99.90
2023-03-15T03:10:06.433Z,99.90
2023-03-15T03:12:47.498Z,99.90
2023-03-15T03:15:20.810Z,99.90
2023-03-15T03:17:54.514Z,99.90
2023-03-15T03:20:28.020Z,99.90
2023-03-15T03:23:05.764Z,99.90
2023-03-15T03:25:37.556Z,99.90
2023-03-15T03:28:09.383Z,99.90
2023-03-15T03:30:41.103Z,99.90
2023-03-15T03:33:13.010Z,99.90
2023-03-15T03:35:44.887Z,99.90
2023-03-15T03:38:17.072Z,99.90
2023-03-15T03:40:54.578Z,99.90
2023-03-15T03:43:26.296Z,99.90
2023-03-15T03:45:58.120Z,99.90
2023-03-15T03:48:31.042Z,99.90
2023-03-15T03:51:02.804Z,99.90
2023-03-15T03:53:34.549Z,99.90
2023-03-15T03:56:07.833Z,99.90
2023-03-15T03:58:41.421Z,99.90
2023-03-15T04:01:19.653Z,99.90
2023-03-15T04:03:55.429Z,99.90
2023-03-15T04:06:28.791Z,99.90
2023-03-15T04:09:02.688Z,99.90
2023-03-15T04:11:45.050Z,99.90
2023-03-15T04:14:16.956Z,99.90
2023-03-15T04:16:50.918Z,99.90
2023-03-15T04:19:23.772Z,99.90
2023-03-15T04:21:56.900Z,99.90
2023-03-15T04:24:42.650Z,99.90
2023-03-15T04:27:21.879Z,99.90
2023-03-15T04:30:06.263Z,99.90
2023-03-15T04:32:59.204Z,99.90
2023-03-15T04:35:49.893Z,99.90
2023-03-15T04:38:40.519Z,99.90
2023-03-15T04:41:44.601Z,99.90
2023-03-15T04:44:27.165Z,99.90
2023-03-15T04:47:14.273Z,99.90
2023-03-15T04:50:23.032Z,99.90
2023-03-15T04:53:17.810Z,99.90
2023-03-15T04:56:09.780Z,99.90
2023-03-15T04:59:04.742Z,99.90
2023-03-15T05:01:54.928Z,99.90
2023-03-15T05:04:58.980Z,99.90
2023-03-15T05:07:59.611Z,99.90
2023-03-15T05:10:54.520Z,99.90
2023-03-15T05:13:51.821Z,99.90
2023-03-15T05:16:48.296Z,99.90
2023-03-15T05:19:36.901Z,99.90
2023-03-15T05:22:08.824Z,99.90
2023-03-15T05:24:59.192Z,99.90
2023-03-15T05:27:41.672Z,99.90
2023-03-15T05:30:28.630Z,99.90
2023-03-15T05:33:13.933Z,99.90
2023-03-15T05:35:56.418Z,99.90
2023-03-15T05:38:31.210Z,99.90
2023-03-15T05:41:21.485Z,99.90
2023-03-15T05:44:05.421Z,99.90
2023-03-15T05:46:37.233Z,99.90
2023-03-15T05:49:33.831Z,99.90
2023-03-15T05:52:16.648Z,99.90
2023-03-15T05:55:09.065Z,99.90
2023-03-15T05:57:59.034Z,99.90
2023-03-15T06:00:49.682Z,99.90
2023-03-15T06:03:36.991Z,99.90
2023-03-15T06:06:18.049Z,99.90
2023-03-15T06:08:49.942Z,99.90
2023-03-15T06:11:21.971Z,99.90
2023-03-15T06:13:54.534Z,99.90
2023-03-15T06:16:40.582Z,99.90
2023-03-15T06:19:13.653Z,99.90
2023-03-15T06:21:45.621Z,99.90
2023-03-15T06:24:25.721Z,99.90
2023-03-15T06:26:57.977Z,99.90
2023-03-15T06:29:30.346Z,99.90
2023-03-15T06:32:03.809Z,99.90
2023-03-15T06:34:36.286Z,99.90
2023-03-15T06:37:08.243Z,99.90
2023-03-15T06:39:40.492Z,99.90
2023-03-15T06:42:13.737Z,99.90
2023-03-15T06:44:45.627Z,99.90
2023-03-15T06:47:18.594Z,99.90
2023-03-15T06:49:50.613Z,99.90
2023-03-15T06:52:23.935Z,99.90
2023-03-15T06:54:55.844Z,99.90
2023-03-15T06:57:27.735Z,99.90
2023-03-15T06:59:59.441Z,99.90
2023-03-15T07:02:37.014Z,99.90
2023-03-15T07:05:09.431Z,99.90
2023-03-15T07:07:41.164Z,99.90
2023-03-15T07:10:12.982Z,99.90
2023-03-15T07:12:44.678Z,99.90
2023-03-15T07:15:17.504Z,99.90
2023-03-15T07:17:49.436Z,99.90
2023-03-15T07:20:21.284Z,99.90
2023-03-15T07:22:52.975Z,99.90
2023-03-15T07:25:25.906Z,99.90
2023-03-15T07:27:57.750Z,99.90
2023-03-15T07:30:29.676Z,99.90
2023-03-15T07:33:01.603Z,99.90
2023-03-15T07:35:33.497Z,99.90
2023-03-15T07:38:05.194Z,99.90
2023-03-15T07:40:37.085Z,99.90
2023-03-15T07:43:08.770Z,99.90
2023-03-15T07:45:40.658Z,99.90
2023-03-15T07:48:12.423Z,99.90
2023-03-15T07:50:45.690Z,99.90
2023-03-15T07:53:17.516Z,99.90
2023-03-15T07:55:49.429Z,99.90
2023-03-15T07:58:21.179Z,99.90
2023-03-15T08:00:56.232Z,99.90
2023-03-15T08:03:28.047Z,99.90
2023-03-15T08:05:59.806Z,99.90
2023-03-15T08:08:31.626Z,99.90
2023-03-15T08:11:05.101Z,99.90
2023-03-15T08:13:37.037Z,99.90
2023-03-15T08:16:08.845Z,99.90
2023-03-15T08:18:40.560Z,99.90
2023-03-15T08:21:12.313Z,99.90
2023-03-15T08:23:44.087Z,99.90
2023-03-15T08:26:15.848Z,99.90
2023-03-15T08:28:47.566Z,99.90
2023-03-15T08:31:19.339Z,99.90
2023-03-15T08:33:51.122Z,99.90
2023-03-15T08:36:23.004Z,99.90
2023-03-15T08:38:54.729Z,99.90
2023-03-15T08:41:26.494Z,99.90
2023-03-15T08:43:58.260Z,99.90
2023-03-15T08:46:30.221Z,99.90
2023-03-15T08:49:05.000Z,99.90
2023-03-15T08:51:36.859Z,99.90
2023-03-15T08:54:08.662Z,99.90
2023-03-15T08:56:41.488Z,99.90
2023-03-15T08:59:19.447Z,99.90
2023-03-15T09:01:57.239Z,99.90
2023-03-15T09:04:28.999Z,99.90
2023-03-15T09:07:01.654Z,99.90
2023-03-15T09:09:33.782Z,99.90
2023-03-15T09:12:05.755Z,99.90
2023-03-15T09:14:37.544Z,99.90
2023-03-15T09:17:09.821Z,99.90
2023-03-15T09:19:41.540Z,99.90
2023-03-15T09:22:17.203Z,99.90
2023-03-15T09:24:55.386Z,99.90
2023-03-15T09:27:29.399Z,99.90
2023-03-15T09:30:01.427Z,99.90
2023-03-15T09:32:36.541Z,99.90
2023-03-15T09:35:12.773Z,99.90
2023-03-15T09:37:44.960Z,99.90
2023-03-15T09:40:26.418Z,99.90
2023-03-15T09:43:15.014Z,99.90
2023-03-15T09:46:14.817Z,99.90
2023-03-15T09:49:14.014Z,99.90
2023-03-15T09:52:03.627Z,99.90
2023-03-15T09:54:46.865Z,99.90
2023-03-15T09:57:23.895Z,99.90
2023-03-15T09:59:56.787Z,99.90
2023-03-15T10:02:30.559Z,99.90
2023-03-15T10:05:21.296Z,99.90
2023-03-15T10:07:53.162Z,99.90
2023-03-15T10:10:33.101Z,99.90
2023-03-15T10:13:45.776Z,99.90
2023-03-15T10:16:39.701Z,99.90
2023-03-15T10:19:17.204Z,99.90
2023-03-15T10:21:56.223Z,99.90
2023-03-15T10:24:43.070Z,99.90
2023-03-15T10:27:26.369Z,99.90
2023-03-15T10:29:59.145Z,99.90
2023-03-15T10:32:38.475Z,99.90
2023-03-15T10:35:18.329Z,99.90
2023-03-15T10:37:50.122Z,99.90
2023-03-15T10:40:43.150Z,99.90
2023-03-15T10:43:23.333Z,99.90
2023-03-15T10:46:05.858Z,99.90
2023-03-15T10:49:09.168Z,99.90
2023-03-15T10:51:46.358Z,99.90
2023-03-15T10:54:21.041Z,99.90
2023-03-15T10:57:06.122Z,99.90
2023-03-15T10:59:37.880Z,99.90
2023-03-15T11:02:12.332Z,99.90
2023-03-15T11:04:49.168Z,99.90
2023-03-15T11:07:21.349Z,99.50
2023-03-15T11:09:58.821Z,99.90
2023-03-15T11:12:33.377Z,99.90
2023-03-15T11:15:16.694Z,99.90
2023-03-15T11:17:50.076Z,99.90
2023-03-15T11:20:37.274Z,99.90
2023-03-15T11:23:22.141Z,99.90
2023-03-15T11:25:55.069Z,99.00
2023-03-15T11:28:29.727Z,98.70
2023-03-15T11:31:04.673Z,99.00
2023-03-15T11:33:52.472Z,99.50
2023-03-15T11:36:30.027Z,99.70
2023-03-15T11:39:04.593Z,99.90
2023-03-15T11:41:48.628Z,99.90
2023-03-15T11:44:33.827Z,99.90
2023-03-15T11:47:11.698Z,99.90
2023-03-15T11:49:51.839Z,99.90
2023-03-15T11:52:26.628Z,99.90
2023-03-15T11:55:01.227Z,99.90
2023-03-15T11:57:44.864Z,99.90
2023-03-15T12:00:34.785Z,99.90
2023-03-15T12:03:46.859Z,99.70
2023-03-15T12:06:18.781Z,99.80
2023-03-15T12:08:55.145Z,99.90
2023-03-15T12:11:36.905Z,99.40
2023-03-15T12:14:38.114Z,99.70
2023-03-15T12:17:26.882Z,98.00
2023-03-15T12:20:35.399Z,98.70
2023-03-15T12:23:17.595Z,98.40
2023-03-15T12:26:05.420Z,98.60
2023-03-15T12:28:41.257Z,99.70
2023-03-15T12:31:14.413Z,99.20
2023-03-15T12:33:53.370Z,99.10
2023-03-15T12:36:39.460Z,99.00
2023-03-15T12:39:14.222Z,97.20
2023-03-15T12:41:51.357Z,97.10
2023-03-15T12:44:31.943Z,96.70
2023-03-15T12:47:11.525Z,96.20
2023-03-15T12:49:45.214Z,97.00
2023-03-15T12:52:16.923Z,95.80
2023-03-15T12:55:04.832Z,95.80
2023-03-15T12:57:39.867Z,97.00
2023-03-15T13:00:19.257Z,97.70
2023-03-15T13:03:01.541Z,98.10
2023-03-15T13:05:54.544Z,99.70
2023-03-15T13:09:00.932Z,99.90
2023-03-15T13:12:01.739Z,99.90
2023-03-15T13:14:50.389Z,99.90
2023-03-15T13:17:31.654Z,99.90
2023-03-15T13:20:25.211Z,99.90
2023-03-15T13:23:29.153Z,99.90
2023-03-15T13:26:25.634Z,99.90
2023-03-15T13:29:12.213Z,99.90
2023-03-15T13:31:45.700Z,99.90
2023-03-15T13:34:22.077Z,99.90
2023-03-15T13:36:57.158Z,99.90
2023-03-15T13:39:35.196Z,99.90
2023-03-15T13:42:18.628Z,99.90
2023-03-15T13:45:23.253Z,99.90
2023-03-15T13:47:54.976Z,99.90
2023-03-15T13:50:26.765Z,99.90
2023-03-15T13:52:58.617Z,99.90
2023-03-15T13:55:34.546Z,99.90
2023-03-15T13:58:08.576Z,99.90
2023-03-15T14:00:41.416Z,99.90
2023-03-15T14:03:21.562Z,99.90
2023-03-15T14:05:55.366Z,99.90
2023-03-15T14:08:37.034Z,99.90
2023-03-15T14:11:19.578Z,99.90
2023-03-15T14:14:01.813Z,99.90
2023-03-15T14:17:01.249Z,99.90
2023-03-15T14:19:36.782Z,99.90
2023-03-15T14:22:19.135Z,99.90
2023-03-15T14:24:52.298Z,99.90
2023-03-15T14:27:28.535Z,99.90
2023-03-15T14:30:03.045Z,99.90
2023-03-15T14:32:50.472Z,99.90
2023-03-15T14:35:41.664Z,99.90
2023-03-15T14:38:23.098Z,99.90
2023-03-15T14:41:10.089Z,99.90
2023-03-15T14:43:41.794Z,99.90
2023-03-15T14:46:13.695Z,99.90
2023-03-15T14:48:46.034Z,99.90
2023-03-15T14:51:20.996Z,99.90
2023-03-15T14:53:56.468Z,99.90
2023-03-15T14:56:28.290Z,99.90
2023-03-15T14:59:01.798Z,99.90
2023-03-15T15:01:35.324Z,99.90
2023-03-15T15:04:07.264Z,99.90
2023-03-15T15:06:39.106Z,99.90
2023-03-15T15:09:11.021Z,99.90
2023-03-15T15:11:42.868Z,99.90
2023-03-15T15:14:15.510Z,99.90
2023-03-15T15:16:49.020Z,99.90
2023-03-15T15:19:20.723Z,99.90
2023-03-15T15:21:52.433Z,99.90
2023-03-15T15:24:26.757Z,99.90
2023-03-15T15:26:58.507Z,99.90
2023-03-15T15:29:30.449Z,99.90
2023-03-15T15:32:02.234Z,99.90
2023-03-15T15:34:34.055Z,99.90
2023-03-15T15:37:05.988Z,99.90
2023-03-15T15:39:37.713Z,99.90
2023-03-15T15:42:10.867Z,99.90
2023-03-15T15:44:42.629Z,99.90
2023-03-15T15:47:14.364Z,99.90
2023-03-15T15:49:46.074Z,99.90
2023-03-15T15:52:17.858Z,99.90
2023-03-15T15:54:49.621Z,99.90
2023-03-15T15:57:22.168Z,99.90
2023-03-15T15:59:53.928Z,99.90
2023-03-15T16:02:25.762Z,99.90
2023-03-15T16:04:57.607Z,99.90
2023-03-15T16:07:29.597Z,99.90
2023-03-15T16:10:01.977Z,99.90
2023-03-15T16:12:35.175Z,99.90
2023-03-15T16:15:07.476Z,99.90
2023-03-15T16:17:39.208Z,99.90
2023-03-15T16:20:12.442Z,99.90
2023-03-15T16:22:49.518Z,99.90
2023-03-15T16:25:27.025Z,99.90
2023-03-15T16:28:00.606Z,99.90
2023-03-15T16:30:33.452Z,99.90
2023-03-15T16:33:14.370Z,99.90
2023-03-15T16:35:49.919Z,99.90
2023-03-15T16:38:24.660Z,99.90
2023-03-15T16:40:56.554Z,99.90
2023-03-15T16:43:28.737Z,99.90
2023-03-15T16:46:00.813Z,99.90
2023-03-15T16:48:32.681Z,99.90
2023-03-15T16:51:05.538Z,99.90
2023-03-15T16:53:37.861Z,99.90
2023-03-15T16:56:11.866Z,99.90
2023-03-15T16:58:44.159Z,99.90
2023-03-15T17:01:15.869Z,99.90
2023-03-15T17:03:47.625Z,99.90
2023-03-15T17:06:23.204Z,99.90
2023-03-15T17:09:10.400Z,99.90
2023-03-15T17:11:43.974Z,99.90
2023-03-15T17:14:25.519Z,99.90
2023-03-15T17:16:57.449Z,99.90
2023-03-15T17:19:29.267Z,99.90
2023-03-15T17:22:01.141Z,99.90
2023-03-15T17:24:33.082Z,99.90
2023-03-15T17:27:05.195Z,99.90
2023-03-15T17:29:36.910Z,99.90
2023-03-15T17:32:12.132Z,99.90
2023-03-15T17:34:47.119Z,99.90
2023-03-15T17:37:18.915Z,99.90
2023-03-15T17:39:50.767Z,99.90
2023-03-15T17:42:22.479Z,99.90
2023-03-15T17:44:54.199Z,99.90
2023-03-15T17:47:25.895Z,99.90
2023-03-15T17:49:57.966Z,99.90
2023-03-15T17:52:29.667Z,99.90
2023-03-15T17:55:01.434Z,99.90
2023-03-15T17:57:33.868Z,99.90
2023-03-15T18:00:07.548Z,99.90
2023-03-15T18:02:49.824Z,99.90
2023-03-15T18:05:29.239Z,99.90
2023-03-15T18:08:03.858Z,99.90
2023-03-15T18:10:39.569Z,99.90
2023-03-15T18:13:14.156Z,99.90
2023-03-15T18:15:46.633Z,99.90
2023-03-15T18:18:18.586Z,99.90
2023-03-15T18:20:50.516Z,99.90
2023-03-15T18:23:22.244Z,99.90
2023-03-15T18:25:53.974Z,99.90
2023-03-15T18:28:25.743Z,99.90
2023-03-15T18:30:57.472Z,99.90
2023-03-15T18:33:31.300Z,99.90
2023-03-15T18:36:03.175Z,99.90
2023-03-15T18:38:35.156Z,99.90
2023-03-15T18:41:22.574Z,99.90
2023-03-15T18:43:54.348Z,99.90
2023-03-15T18:46:26.281Z,99.90
2023-03-15T18:48:58.164Z,99.90
2023-03-15T18:51:29.909Z,99.90
2023-03-15T18:54:01.591Z,99.90
2023-03-15T18:56:34.713Z,99.90
2023-03-15T18:59:06.452Z,99.90
2023-03-15T19:01:38.334Z,99.90
2023-03-15T19:04:11.083Z,99.90
2023-03-15T19:06:42.882Z,99.90
2023-03-15T19:09:14.617Z,99.90
2023-03-15T19:11:46.325Z,99.90
2023-03-15T19:14:18.370Z,99.90
2023-03-15T19:16:50.146Z,99.90
2023-03-15T19:19:21.943Z,99.90
2023-03-15T19:21:55.296Z,99.90
2023-03-15T19:24:27.110Z,99.90
2023-03-15T19:26:58.898Z,99.90
2023-03-15T19:29:30.617Z,99.90
2023-03-15T19:32:03.938Z,99.90
2023-03-15T19:34:35.665Z,99.90
2023-03-15T19:37:07.516Z,99.90
2023-03-15T19:39:39.507Z,99.90
2023-03-15T19:42:11.440Z,99.90
2023-03-15T19:44:43.669Z,99.90
2023-03-15T19:47:15.398Z,99.90
2023-03-15T19:49:47.382Z,99.90
2023-03-15T19:52:19.124Z,99.90
2023-03-15T19:54:51.724Z,99.90
2023-03-15T19:57:23.569Z,99.90
2023-03-15T19:59:55.410Z,99.90
2023-03-15T20:02:27.116Z,99.90
2023-03-15T20:04:58.818Z,99.90
2023-03-15T20:07:30.520Z,99.90
2023-03-15T20:10:02.333Z,99.90
2023-03-15T20:12:35.684Z,99.90
2023-03-15T20:15:10.038Z,99.90
2023-03-15T20:17:42.513Z,99.90
2023-03-15T20:20:14.763Z,99.90
2023-03-15T20:22:46.889Z,99.90
2023-03-15T20:25:20.178Z,99.90
2023-03-15T20:27:51.936Z,99.90
2023-03-15T20:30:24.211Z,99.90
2023-03-15T20:32:56.652Z,99.90
2023-03-15T20:35:28.407Z,99.90
2023-03-15T20:38:06.555Z,99.90
2023-03-15T20:40:38.547Z,99.90
2023-03-15T20:43:11.380Z,99.90
2023-03-15T20:45:44.092Z,99.90
2023-03-15T20:48:15.786Z,99.90
2023-03-15T20:50:47.784Z,99.90
2023-03-15T20:53:20.897Z,99.90
2023-03-15T20:55:52.656Z,99.90
2023-03-15T20:58:24.579Z,99.90
2023-03-15T21:01:04.632Z,99.90
2023-03-15T21:03:37.154Z,99.90
2023-03-15T21:06:09.341Z,99.90
2023-03-15T21:08:42.313Z,99.90
2023-03-15T21:11:14.162Z,99.90
2023-03-15T21:13:46.110Z,99.90
2023-03-15T21:16:18.241Z,99.90
2023-03-15T21:18:53.015Z,99.90
2023-03-15T21:21:24.788Z,99.90
2023-03-15T21:23:56.521Z,99.90
2023-03-15T21:26:28.238Z,99.90
2023-03-15T21:29:00.123Z,99.90
2023-03-15T21:31:31.917Z,99.90
2023-03-15T21:34:05.014Z,99.90
2023-03-15T21:36:36.733Z,99.90
2023-03-15T21:39:08.529Z,99.90
2023-03-15T21:41:40.420Z,99.90
2023-03-15T21:44:12.187Z,99.90
2023-03-15T21:46:43.989Z,99.90
2023-03-15T21:49:15.902Z,99.90
2023-03-15T21:51:47.620Z,99.90
2023-03-15T21:54:19.409Z,99.90
2023-03-15T21:56:52.995Z,99.90
2023-03-15T21:59:28.134Z,99.90
2023-03-15T22:02:01.621Z,99.90
2023-03-15T22:04:33.912Z,99.90
2023-03-15T22:07:06.006Z,99.90
2023-03-15T22:09:38.062Z,99.90
2023-03-15T22:12:10.358Z,99.90
2023-03-15T22:14:42.213Z,99.90
2023-03-15T22:17:13.989Z,99.90
2023-03-15T22:19:45.813Z,99.90
2023-03-15T22:22:17.599Z,99.90
2023-03-15T22:24:49.466Z,99.90
2023-03-15T22:27:21.530Z,99.90
2023-03-15T22:29:53.330Z,99.90
2023-03-15T22:32:25.078Z,99.90
2023-03-15T22:34:57.110Z,99.90
2023-03-15T22:37:28.895Z,99.90
2023-03-15T22:40:00.927Z,99.90
2023-03-15T22:42:32.779Z,99.90
2023-03-15T22:45:05.505Z,99.90
2023-03-15T22:47:37.209Z,99.90
2023-03-15T22:50:11.517Z,99.90
2023-03-15T22:52:43.705Z,99.90
2023-03-15T22:55:15.431Z,99.90
2023-03-15T22:57:47.851Z,99.90
2023-03-15T23:00:21.945Z,99.90
2023-03-15T23:02:53.670Z,99.90
2023-03-15T23:05:25.376Z,99.90
2023-03-15T23:07:57.067Z,99.90
2023-03-15T23:10:28.871Z,99.90
2023-03-15T23:13:00.971Z,99.90
2023-03-15T23:15:33.045Z,99.90
2023-03-15T23:18:05.500Z,99.90
2023-03-15T23:20:37.637Z,99.90
2023-03-15T23:23:09.444Z,99.90
2023-03-15T23:25:41.411Z,99.90
2023-03-15T23:28:13.902Z,99.90
2023-03-15T23:30:45.805Z,99.90
2023-03-15T23:33:17.915Z,99.90
2023-03-15T23:35:49.922Z,99.90
2023-03-15T23:38:21.927Z,99.90
2023-03-15T23:40:59.028Z,99.90
2023-03-15T23:43:31.507Z,99.90
2023-03-15T23:46:05.007Z,99.90
2023-03-15T23:48:37.051Z,99.90
2023-03-15T23:51:09.002Z,99.90
2023-03-15T23:53:40.832Z,99.90
2023-03-15T23:56:12.555Z,99.90
2023-03-15T23:58:44.251Z,99.90
